sensor_id;sensor_type;location;lat;lon;timestamp;P1;P2;P0
39955;PMS5003;25631;51.516;-0.470;2023-08-31T00:01:16;54;49;
39955;PMS5003;25631;51.516;-0.470;2023-08-31T00:03:52;55;49;
39955;PMS5003;25631;51.516;-0.470;2023-08-31T00:06:28;60;53;
39955;PMS5003;25631;51.516;-0.470;2023-08-31T00:09:05;51;46;
39955;PMS5003;25631;51.516;-0.470;2023-08-31T00:11:42;57;55;
39955;PMS5003;25631;51.516;-0.470;2023-08-31T00:14:18;55;51;
39955;PMS5003;25631;51.516;-0.470;2023-08-31T00:16:55;58;54;
39955;PMS5003;25631;51.516;-0.470;2023-08-31T00:19:31;59;54;
39955;PMS5003;25631;51.516;-0.470;2023-08-31T00:22:08;59;52;
39955;PMS5003;25631;51.516;-0.470;2023-08-31T00:24:44;57;50;
39955;PMS5003;25631;51.516;-0.470;2023-08-31T00:27:20;57;50;
39955;PMS5003;25631;51.516;-0.470;2023-08-31T00:29:57;54;49;
39955;PMS5003;25631;51.516;-0.470;2023-08-31T00:32:33;50;48;
39955;PMS5003;25631;51.516;-0.470;2023-08-31T00:35:10;54;52;
39955;PMS5003;25631;51.516;-0.470;2023-08-31T00:37:46;59;55;
39955;PMS5003;25631;51.516;-0.470;2023-08-31T00:40:25;64;60;
39955;PMS5003;25631;51.516;-0.470;2023-08-31T00:43:01;51;46;
39955;PMS5003;25631;51.516;-0.470;2023-08-31T00:45:38;58;51;
39955;PMS5003;25631;51.516;-0.470;2023-08-31T00:48:15;57;52;
39955;PMS5003;25631;51.516;-0.470;2023-08-31T00:50:53;55;50;
39955;PMS5003;25631;51.516;-0.470;2023-08-31T00:53:30;58;51;
39955;PMS5003;25631;51.516;-0.470;2023-08-31T00:56:07;47;45;
39955;PMS5003;25631;51.516;-0.470;2023-08-31T00:58:44;51;49;
39955;PMS5003;25631;51.516;-0.470;2023-08-31T01:01:22;50;46;
39955;PMS5003;25631;51.516;-0.470;2023-08-31T01:04:16;52;50;
39955;PMS5003;25631;51.516;-0.470;2023-08-31T01:06:59;56;52;
39955;PMS5003;25631;51.516;-0.470;2023-08-31T01:09:41;55;50;
39955;PMS5003;25631;51.516;-0.470;2023-08-31T01:12:28;59;55;
39955;PMS5003;25631;51.516;-0.470;2023-08-31T01:15:11;55;47;
39955;PMS5003;25631;51.516;-0.470;2023-08-31T01:17:51;57;52;
39955;PMS5003;25631;51.516;-0.470;2023-08-31T01:20:31;61;52;
39955;PMS5003;25631;51.516;-0.470;2023-08-31T01:23:16;50;48;
39955;PMS5003;25631;51.516;-0.470;2023-08-31T01:25:54;51;49;
39955;PMS5003;25631;51.516;-0.470;2023-08-31T01:28:31;39;36;
39955;PMS5003;25631;51.516;-0.470;2023-08-31T01:31:08;36;34;
39955;PMS5003;25631;51.516;-0.470;2023-08-31T01:33:44;37;35;
39955;PMS5003;25631;51.516;-0.470;2023-08-31T01:36:23;34;32;
39955;PMS5003;25631;51.516;-0.470;2023-08-31T01:39:06;34;31;
39955;PMS5003;25631;51.516;-0.470;2023-08-31T01:41:49;27;26;
39955;PMS5003;25631;51.516;-0.470;2023-08-31T01:44:32;31;30;
39955;PMS5003;25631;51.516;-0.470;2023-08-31T01:47:11;34;32;
39955;PMS5003;25631;51.516;-0.470;2023-08-31T01:49:49;23;23;
39955;PMS5003;25631;51.516;-0.470;2023-08-31T01:52:26;24;23;
39955;PMS5003;25631;51.516;-0.470;2023-08-31T01:55:03;24;23;
39955;PMS5003;25631;51.516;-0.470;2023-08-31T01:57:40;26;25;
39955;PMS5003;25631;51.516;-0.470;2023-08-31T02:00:17;24;23;
39955;PMS5003;25631;51.516;-0.470;2023-08-31T02:02:54;22;22;
39955;PMS5003;25631;51.516;-0.470;2023-08-31T02:05:31;21;21;
39955;PMS5003;25631;51.516;-0.470;2023-08-31T02:08:08;20;20;
39955;PMS5003;25631;51.516;-0.470;2023-08-31T02:10:45;12;11;
39955;PMS5003;25631;51.516;-0.470;2023-08-31T02:13:22;12;11;
39955;PMS5003;25631;51.516;-0.470;2023-08-31T02:15:59;13;11;
39955;PMS5003;25631;51.516;-0.470;2023-08-31T02:18:35;13;11;
39955;PMS5003;25631;51.516;-0.470;2023-08-31T02:21:11;11;11;
39955;PMS5003;25631;51.516;-0.470;2023-08-31T02:23:48;12;11;
39955;PMS5003;25631;51.516;-0.470;2023-08-31T02:26:24;13;11;
39955;PMS5003;25631;51.516;-0.470;2023-08-31T02:29:00;14;12;
39955;PMS5003;25631;51.516;-0.470;2023-08-31T02:31:37;12;12;
39955;PMS5003;25631;51.516;-0.470;2023-08-31T02:34:13;12;12;
39955;PMS5003;25631;51.516;-0.470;2023-08-31T02:36:50;16;16;
39955;PMS5003;25631;51.516;-0.470;2023-08-31T02:39:26;15;15;
39955;PMS5003;25631;51.516;-0.470;2023-08-31T02:42:03;18;17;
39955;PMS5003;25631;51.516;-0.470;2023-08-31T02:44:40;13;13;
39955;PMS5003;25631;51.516;-0.470;2023-08-31T02:47:16;13;13;
39955;PMS5003;25631;51.516;-0.470;2023-08-31T02:49:53;12;12;
39955;PMS5003;25631;51.516;-0.470;2023-08-31T02:52:29;12;12;
39955;PMS5003;25631;51.516;-0.470;2023-08-31T02:55:06;11;10;
39955;PMS5003;25631;51.516;-0.470;2023-08-31T02:57:43;14;13;
39955;PMS5003;25631;51.516;-0.470;2023-08-31T03:00:20;14;14;
39955;PMS5003;25631;51.516;-0.470;2023-08-31T03:02:56;15;14;
39955;PMS5003;25631;51.516;-0.470;2023-08-31T03:05:33;11;11;
39955;PMS5003;25631;51.516;-0.470;2023-08-31T03:08:10;11;11;
39955;PMS5003;25631;51.516;-0.470;2023-08-31T03:10:46;7;7;
39955;PMS5003;25631;51.516;-0.470;2023-08-31T03:13:23;9;8;
39955;PMS5003;25631;51.516;-0.470;2023-08-31T03:15:59;9;8;
39955;PMS5003;25631;51.516;-0.470;2023-08-31T03:18:36;10;9;
39955;PMS5003;25631;51.516;-0.470;2023-08-31T03:21:13;10;9;
39955;PMS5003;25631;51.516;-0.470;2023-08-31T03:23:49;11;10;
39955;PMS5003;25631;51.516;-0.470;2023-08-31T03:26:25;11;10;
39955;PMS5003;25631;51.516;-0.470;2023-08-31T03:29:02;11;10;
39955;PMS5003;25631;51.516;-0.470;2023-08-31T03:31:38;7;7;
39955;PMS5003;25631;51.516;-0.470;2023-08-31T03:34:15;7;7;
39955;PMS5003;25631;51.516;-0.470;2023-08-31T03:36:52;7;7;
39955;PMS5003;25631;51.516;-0.470;2023-08-31T03:39:28;8;8;
39955;PMS5003;25631;51.516;-0.470;2023-08-31T03:42:05;8;8;
39955;PMS5003;25631;51.516;-0.470;2023-08-31T03:44:41;7;7;
39955;PMS5003;25631;51.516;-0.470;2023-08-31T03:47:18;9;9;
39955;PMS5003;25631;51.516;-0.470;2023-08-31T03:49:55;8;8;
39955;PMS5003;25631;51.516;-0.470;2023-08-31T03:52:31;8;8;
39955;PMS5003;25631;51.516;-0.470;2023-08-31T03:55:08;8;8;
39955;PMS5003;25631;51.516;-0.470;2023-08-31T03:57:44;10;9;
39955;PMS5003;25631;51.516;-0.470;2023-08-31T04:00:21;9;9;
39955;PMS5003;25631;51.516;-0.470;2023-08-31T04:02:57;8;8;
39955;PMS5003;25631;51.516;-0.470;2023-08-31T04:05:34;8;7;
39955;PMS5003;25631;51.516;-0.470;2023-08-31T04:08:11;8;7;
39955;PMS5003;25631;51.516;-0.470;2023-08-31T04:10:48;10;9;
39955;PMS5003;25631;51.516;-0.470;2023-08-31T04:13:24;9;9;
39955;PMS5003;25631;51.516;-0.470;2023-08-31T04:16:00;9;8;
39955;PMS5003;25631;51.516;-0.470;2023-08-31T04:18:37;8;7;
39955;PMS5003;25631;51.516;-0.470;2023-08-31T04:21:13;7;7;
39955;PMS5003;25631;51.516;-0.470;2023-08-31T04:23:50;8;7;
39955;PMS5003;25631;51.516;-0.470;2023-08-31T04:26:26;7;6;
39955;PMS5003;25631;51.516;-0.470;2023-08-31T04:29:03;7;6;
39955;PMS5003;25631;51.516;-0.470;2023-08-31T04:31:39;5;5;
39955;PMS5003;25631;51.516;-0.470;2023-08-31T04:34:16;8;6;
39955;PMS5003;25631;51.516;-0.470;2023-08-31T04:36:52;7;5;
39955;PMS5003;25631;51.516;-0.470;2023-08-31T04:39:28;5;4;
39955;PMS5003;25631;51.516;-0.470;2023-08-31T04:42:05;4;4;
39955;PMS5003;25631;51.516;-0.470;2023-08-31T04:44:42;6;6;
39955;PMS5003;25631;51.516;-0.470;2023-08-31T04:47:18;5;4;
39955;PMS5003;25631;51.516;-0.470;2023-08-31T04:49:55;5;5;
39955;PMS5003;25631;51.516;-0.470;2023-08-31T04:52:31;3;3;
39955;PMS5003;25631;51.516;-0.470;2023-08-31T04:55:08;6;5;
39955;PMS5003;25631;51.516;-0.470;2023-08-31T04:57:44;7;5;
39955;PMS5003;25631;51.516;-0.470;2023-08-31T05:00:21;5;4;
39955;PMS5003;25631;51.516;-0.470;2023-08-31T05:02:57;5;5;
39955;PMS5003;25631;51.516;-0.470;2023-08-31T05:05:34;5;3;
39955;PMS5003;25631;51.516;-0.470;2023-08-31T05:08:10;5;3;
39955;PMS5003;25631;51.516;-0.470;2023-08-31T05:10:46;5;3;
39955;PMS5003;25631;51.516;-0.470;2023-08-31T05:13:23;5;5;
39955;PMS5003;25631;51.516;-0.470;2023-08-31T05:15:59;4;4;
39955;PMS5003;25631;51.516;-0.470;2023-08-31T05:18:35;4;3;
39955;PMS5003;25631;51.516;-0.470;2023-08-31T05:21:12;4;3;
39955;PMS5003;25631;51.516;-0.470;2023-08-31T05:23:48;4;3;
39955;PMS5003;25631;51.516;-0.470;2023-08-31T05:26:25;6;5;
39955;PMS5003;25631;51.516;-0.470;2023-08-31T05:29:01;10;8;
39955;PMS5003;25631;51.516;-0.470;2023-08-31T05:31:38;11;9;
39955;PMS5003;25631;51.516;-0.470;2023-08-31T05:34:16;1;1;
39955;PMS5003;25631;51.516;-0.470;2023-08-31T05:36:52;3;2;
39955;PMS5003;25631;51.516;-0.470;2023-08-31T05:39:29;5;5;
39955;PMS5003;25631;51.516;-0.470;2023-08-31T05:42:05;3;3;
39955;PMS5003;25631;51.516;-0.470;2023-08-31T05:44:42;4;4;
39955;PMS5003;25631;51.516;-0.470;2023-08-31T05:47:18;2;2;
39955;PMS5003;25631;51.516;-0.470;2023-08-31T05:49:55;3;3;
39955;PMS5003;25631;51.516;-0.470;2023-08-31T05:52:31;2;2;
39955;PMS5003;25631;51.516;-0.470;2023-08-31T05:55:07;4;3;
39955;PMS5003;25631;51.516;-0.470;2023-08-31T05:57:44;5;3;
39955;PMS5003;25631;51.516;-0.470;2023-08-31T06:00:20;5;4;
39955;PMS5003;25631;51.516;-0.470;2023-08-31T06:02:57;5;4;
39955;PMS5003;25631;51.516;-0.470;2023-08-31T06:05:33;6;5;
39955;PMS5003;25631;51.516;-0.470;2023-08-31T06:08:10;4;4;
39955;PMS5003;25631;51.516;-0.470;2023-08-31T06:10:46;4;4;
39955;PMS5003;25631;51.516;-0.470;2023-08-31T06:13:23;5;4;
39955;PMS5003;25631;51.516;-0.470;2023-08-31T06:15:59;6;5;
39955;PMS5003;25631;51.516;-0.470;2023-08-31T06:18:36;7;5;
39955;PMS5003;25631;51.516;-0.470;2023-08-31T06:21:12;5;4;
39955;PMS5003;25631;51.516;-0.470;2023-08-31T06:23:48;4;4;
39955;PMS5003;25631;51.516;-0.470;2023-08-31T06:26:25;5;5;
39955;PMS5003;25631;51.516;-0.470;2023-08-31T06:29:02;5;4;
39955;PMS5003;25631;51.516;-0.470;2023-08-31T06:31:38;7;5;
39955;PMS5003;25631;51.516;-0.470;2023-08-31T06:34:15;7;4;
39955;PMS5003;25631;51.516;-0.470;2023-08-31T06:36:51;7;5;
39955;PMS5003;25631;51.516;-0.470;2023-08-31T06:39:27;8;6;
39955;PMS5003;25631;51.516;-0.470;2023-08-31T06:42:04;5;3;
39955;PMS5003;25631;51.516;-0.470;2023-08-31T06:44:41;6;4;
39955;PMS5003;25631;51.516;-0.470;2023-08-31T06:47:17;4;3;
39955;PMS5003;25631;51.516;-0.470;2023-08-31T06:49:54;4;3;
39955;PMS5003;25631;51.516;-0.470;2023-08-31T06:52:31;5;3;
39955;PMS5003;25631;51.516;-0.470;2023-08-31T06:55:07;6;5;
39955;PMS5003;25631;51.516;-0.470;2023-08-31T06:57:44;7;6;
39955;PMS5003;25631;51.516;-0.470;2023-08-31T07:00:20;3;3;
39955;PMS5003;25631;51.516;-0.470;2023-08-31T07:02:57;3;2;
39955;PMS5003;25631;51.516;-0.470;2023-08-31T07:05:34;4;3;
39955;PMS5003;25631;51.516;-0.470;2023-08-31T07:08:17;6;3;
39955;PMS5003;25631;51.516;-0.470;2023-08-31T07:10:54;7;5;
39955;PMS5003;25631;51.516;-0.470;2023-08-31T07:13:30;7;5;
39955;PMS5003;25631;51.516;-0.470;2023-08-31T07:16:07;2;2;
39955;PMS5003;25631;51.516;-0.470;2023-08-31T07:18:43;3;3;
39955;PMS5003;25631;51.516;-0.470;2023-08-31T07:21:20;5;3;
39955;PMS5003;25631;51.516;-0.470;2023-08-31T07:23:56;4;2;
39955;PMS5003;25631;51.516;-0.470;2023-08-31T07:26:33;3;2;
39955;PMS5003;25631;51.516;-0.470;2023-08-31T07:29:10;3;3;
39955;PMS5003;25631;51.516;-0.470;2023-08-31T07:31:46;4;3;
39955;PMS5003;25631;51.516;-0.470;2023-08-31T07:34:23;6;3;
39955;PMS5003;25631;51.516;-0.470;2023-08-31T07:36:59;7;4;
39955;PMS5003;25631;51.516;-0.470;2023-08-31T07:39:36;8;4;
39955;PMS5003;25631;51.516;-0.470;2023-08-31T07:42:12;6;5;
39955;PMS5003;25631;51.516;-0.470;2023-08-31T07:44:49;6;5;
39955;PMS5003;25631;51.516;-0.470;2023-08-31T07:47:26;5;4;
39955;PMS5003;25631;51.516;-0.470;2023-08-31T07:50:02;5;3;
39955;PMS5003;25631;51.516;-0.470;2023-08-31T07:52:39;6;4;
39955;PMS5003;25631;51.516;-0.470;2023-08-31T07:55:16;4;3;
39955;PMS5003;25631;51.516;-0.470;2023-08-31T07:57:52;4;3;
39955;PMS5003;25631;51.516;-0.470;2023-08-31T08:00:29;4;3;
39955;PMS5003;25631;51.516;-0.470;2023-08-31T08:03:06;3;3;
39955;PMS5003;25631;51.516;-0.470;2023-08-31T08:05:42;3;3;
39955;PMS5003;25631;51.516;-0.470;2023-08-31T08:08:19;2;1;
39955;PMS5003;25631;51.516;-0.470;2023-08-31T08:10:56;2;1;
39955;PMS5003;25631;51.516;-0.470;2023-08-31T08:13:32;2;1;
39955;PMS5003;25631;51.516;-0.470;2023-08-31T08:16:09;5;4;
39955;PMS5003;25631;51.516;-0.470;2023-08-31T08:18:45;6;3;
39955;PMS5003;25631;51.516;-0.470;2023-08-31T08:21:22;7;3;
39955;PMS5003;25631;51.516;-0.470;2023-08-31T08:23:58;3;2;
39955;PMS5003;25631;51.516;-0.470;2023-08-31T08:26:35;2;1;
39955;PMS5003;25631;51.516;-0.470;2023-08-31T08:29:11;5;3;
39955;PMS5003;25631;51.516;-0.470;2023-08-31T08:31:48;6;3;
39955;PMS5003;25631;51.516;-0.470;2023-08-31T08:34:25;5;4;
39955;PMS5003;25631;51.516;-0.470;2023-08-31T08:37:02;2;2;
39955;PMS5003;25631;51.516;-0.470;2023-08-31T08:39:39;2;2;
39955;PMS5003;25631;51.516;-0.470;2023-08-31T08:42:15;2;2;
39955;PMS5003;25631;51.516;-0.470;2023-08-31T08:44:55;3;2;
39955;PMS5003;25631;51.516;-0.470;2023-08-31T08:47:32;3;2;
39955;PMS5003;25631;51.516;-0.470;2023-08-31T08:50:10;6;5;
39955;PMS5003;25631;51.516;-0.470;2023-08-31T08:52:47;9;6;
39955;PMS5003;25631;51.516;-0.470;2023-08-31T08:55:24;4;3;
39955;PMS5003;25631;51.516;-0.470;2023-08-31T08:58:00;3;2;
39955;PMS5003;25631;51.516;-0.470;2023-08-31T09:00:36;2;1;
39955;PMS5003;25631;51.516;-0.470;2023-08-31T09:03:13;3;3;
39955;PMS5003;25631;51.516;-0.470;2023-08-31T09:05:50;3;2;
39955;PMS5003;25631;51.516;-0.470;2023-08-31T09:08:27;4;3;
39955;PMS5003;25631;51.516;-0.470;2023-08-31T09:11:04;5;2;
39955;PMS5003;25631;51.516;-0.470;2023-08-31T09:13:41;5;2;
39955;PMS5003;25631;51.516;-0.470;2023-08-31T09:16:23;2;2;
39955;PMS5003;25631;51.516;-0.470;2023-08-31T09:19:00;2;2;
39955;PMS5003;25631;51.516;-0.470;2023-08-31T09:21:55;2;1;
39955;PMS5003;25631;51.516;-0.470;2023-08-31T09:24:39;5;3;
39955;PMS5003;25631;51.516;-0.470;2023-08-31T09:27:16;5;3;
39955;PMS5003;25631;51.516;-0.470;2023-08-31T09:29:55;5;3;
39955;PMS5003;25631;51.516;-0.470;2023-08-31T09:32:32;5;4;
39955;PMS5003;25631;51.516;-0.470;2023-08-31T09:35:08;6;5;
39955;PMS5003;25631;51.516;-0.470;2023-08-31T09:37:53;4;3;
39955;PMS5003;25631;51.516;-0.470;2023-08-31T09:40:31;3;2;
39955;PMS5003;25631;51.516;-0.470;2023-08-31T09:43:07;6;4;
39955;PMS5003;25631;51.516;-0.470;2023-08-31T09:45:44;6;4;
39955;PMS5003;25631;51.516;-0.470;2023-08-31T09:48:21;4;4;
39955;PMS5003;25631;51.516;-0.470;2023-08-31T09:50:59;3;3;
39955;PMS5003;25631;51.516;-0.470;2023-08-31T09:53:39;5;2;
39955;PMS5003;25631;51.516;-0.470;2023-08-31T09:56:18;6;3;
39955;PMS5003;25631;51.516;-0.470;2023-08-31T09:58:57;8;5;
39955;PMS5003;25631;51.516;-0.470;2023-08-31T10:01:33;6;4;
39955;PMS5003;25631;51.516;-0.470;2023-08-31T10:04:13;2;2;
39955;PMS5003;25631;51.516;-0.470;2023-08-31T10:06:50;2;0;
39955;PMS5003;25631;51.516;-0.470;2023-08-31T10:09:27;3;1;
39955;PMS5003;25631;51.516;-0.470;2023-08-31T10:12:04;4;4;
39955;PMS5003;25631;51.516;-0.470;2023-08-31T10:14:42;8;7;
39955;PMS5003;25631;51.516;-0.470;2023-08-31T10:17:19;7;4;
39955;PMS5003;25631;51.516;-0.470;2023-08-31T10:19:56;6;3;
39955;PMS5003;25631;51.516;-0.470;2023-08-31T10:22:33;8;4;
39955;PMS5003;25631;51.516;-0.470;2023-08-31T10:25:10;2;2;
39955;PMS5003;25631;51.516;-0.470;2023-08-31T10:27:47;3;2;
39955;PMS5003;25631;51.516;-0.470;2023-08-31T10:30:25;2;1;
39955;PMS5003;25631;51.516;-0.470;2023-08-31T10:33:19;2;1;
39955;PMS5003;25631;51.516;-0.470;2023-08-31T10:35:56;3;2;
39955;PMS5003;25631;51.516;-0.470;2023-08-31T10:38:33;2;2;
39955;PMS5003;25631;51.516;-0.470;2023-08-31T10:41:17;1;1;
39955;PMS5003;25631;51.516;-0.470;2023-08-31T10:43:55;1;1;
39955;PMS5003;25631;51.516;-0.470;2023-08-31T10:46:33;3;1;
39955;PMS5003;25631;51.516;-0.470;2023-08-31T10:49:13;3;2;
39955;PMS5003;25631;51.516;-0.470;2023-08-31T10:51:53;4;3;
39955;PMS5003;25631;51.516;-0.470;2023-08-31T10:54:32;3;1;
39955;PMS5003;25631;51.516;-0.470;2023-08-31T10:57:10;4;2;
39955;PMS5003;25631;51.516;-0.470;2023-08-31T10:59:47;4;3;
39955;PMS5003;25631;51.516;-0.470;2023-08-31T11:02:29;4;3;
39955;PMS5003;25631;51.516;-0.470;2023-08-31T11:05:07;2;1;
39955;PMS5003;25631;51.516;-0.470;2023-08-31T11:07:46;3;2;
39955;PMS5003;25631;51.516;-0.470;2023-08-31T11:10:23;3;2;
39955;PMS5003;25631;51.516;-0.470;2023-08-31T11:13:01;2;1;
39955;PMS5003;25631;51.516;-0.470;2023-08-31T11:15:37;2;1;
39955;PMS5003;25631;51.516;-0.470;2023-08-31T11:18:20;7;6;
39955;PMS5003;25631;51.516;-0.470;2023-08-31T11:20:57;5;4;
39955;PMS5003;25631;51.516;-0.470;2023-08-31T11:23:34;5;4;
39955;PMS5003;25631;51.516;-0.470;2023-08-31T11:26:11;2;2;
39955;PMS5003;25631;51.516;-0.470;2023-08-31T11:28:48;3;3;
39955;PMS5003;25631;51.516;-0.470;2023-08-31T11:31:24;2;2;
39955;PMS5003;25631;51.516;-0.470;2023-08-31T11:34:02;4;3;
39955;PMS5003;25631;51.516;-0.470;2023-08-31T11:36:40;2;2;
39955;PMS5003;25631;51.516;-0.470;2023-08-31T11:39:18;2;1;
39955;PMS5003;25631;51.516;-0.470;2023-08-31T11:41:55;2;1;
39955;PMS5003;25631;51.516;-0.470;2023-08-31T11:44:32;2;1;
39955;PMS5003;25631;51.516;-0.470;2023-08-31T11:47:09;2;2;
39955;PMS5003;25631;51.516;-0.470;2023-08-31T11:49:46;3;2;
39955;PMS5003;25631;51.516;-0.470;2023-08-31T11:52:22;1;1;
39955;PMS5003;25631;51.516;-0.470;2023-08-31T11:54:59;1;1;
39955;PMS5003;25631;51.516;-0.470;2023-08-31T11:57:36;1;1;
39955;PMS5003;25631;51.516;-0.470;2023-08-31T12:00:13;2;1;
39955;PMS5003;25631;51.516;-0.470;2023-08-31T12:02:55;3;0;
39955;PMS5003;25631;51.516;-0.470;2023-08-31T12:05:44;3;2;
39955;PMS5003;25631;51.516;-0.470;2023-08-31T12:08:24;3;2;
39955;PMS5003;25631;51.516;-0.470;2023-08-31T12:11:01;2;2;
39955;PMS5003;25631;51.516;-0.470;2023-08-31T12:13:38;3;1;
39955;PMS5003;25631;51.516;-0.470;2023-08-31T12:16:14;3;1;
39955;PMS5003;25631;51.516;-0.470;2023-08-31T12:18:51;6;3;
39955;PMS5003;25631;51.516;-0.470;2023-08-31T12:21:28;3;2;
39955;PMS5003;25631;51.516;-0.470;2023-08-31T12:24:05;4;2;
39955;PMS5003;25631;51.516;-0.470;2023-08-31T12:26:42;5;2;
39955;PMS5003;25631;51.516;-0.470;2023-08-31T12:29:19;5;2;
39955;PMS5003;25631;51.516;-0.470;2023-08-31T12:31:55;5;1;
39955;PMS5003;25631;51.516;-0.470;2023-08-31T12:34:32;5;4;
39955;PMS5003;25631;51.516;-0.470;2023-08-31T12:37:08;5;3;
39955;PMS5003;25631;51.516;-0.470;2023-08-31T12:39:45;1;1;
39955;PMS5003;25631;51.516;-0.470;2023-08-31T12:42:21;1;1;
39955;PMS5003;25631;51.516;-0.470;2023-08-31T12:44:57;2;2;
39955;PMS5003;25631;51.516;-0.470;2023-08-31T12:47:34;3;1;
39955;PMS5003;25631;51.516;-0.470;2023-08-31T12:50:10;3;2;
39955;PMS5003;25631;51.516;-0.470;2023-08-31T12:52:47;3;2;
39955;PMS5003;25631;51.516;-0.470;2023-08-31T12:55:23;1;1;
39955;PMS5003;25631;51.516;-0.470;2023-08-31T12:57:59;1;1;
39955;PMS5003;25631;51.516;-0.470;2023-08-31T13:00:36;2;1;
39955;PMS5003;25631;51.516;-0.470;2023-08-31T13:03:12;3;1;
39955;PMS5003;25631;51.516;-0.470;2023-08-31T13:05:49;3;1;
39955;PMS5003;25631;51.516;-0.470;2023-08-31T13:08:25;2;2;
39955;PMS5003;25631;51.516;-0.470;2023-08-31T13:11:02;2;2;
39955;PMS5003;25631;51.516;-0.470;2023-08-31T13:13:38;2;1;
39955;PMS5003;25631;51.516;-0.470;2023-08-31T13:16:15;2;1;
39955;PMS5003;25631;51.516;-0.470;2023-08-31T13:18:51;2;0;
39955;PMS5003;25631;51.516;-0.470;2023-08-31T13:21:28;2;1;
39955;PMS5003;25631;51.516;-0.470;2023-08-31T13:24:04;2;1;
39955;PMS5003;25631;51.516;-0.470;2023-08-31T13:26:41;5;1;
39955;PMS5003;25631;51.516;-0.470;2023-08-31T13:29:18;3;2;
39955;PMS5003;25631;51.516;-0.470;2023-08-31T13:31:54;3;2;
39955;PMS5003;25631;51.516;-0.470;2023-08-31T13:34:30;3;2;
39955;PMS5003;25631;51.516;-0.470;2023-08-31T13:37:07;3;2;
39955;PMS5003;25631;51.516;-0.470;2023-08-31T13:39:43;3;2;
39955;PMS5003;25631;51.516;-0.470;2023-08-31T13:42:20;2;2;
39955;PMS5003;25631;51.516;-0.470;2023-08-31T13:44:57;3;2;
39955;PMS5003;25631;51.516;-0.470;2023-08-31T13:47:34;2;1;
39955;PMS5003;25631;51.516;-0.470;2023-08-31T13:50:10;3;2;
39955;PMS5003;25631;51.516;-0.470;2023-08-31T13:52:47;1;1;
39955;PMS5003;25631;51.516;-0.470;2023-08-31T13:55:23;2;2;
39955;PMS5003;25631;51.516;-0.470;2023-08-31T13:58:03;1;1;
39955;PMS5003;25631;51.516;-0.470;2023-08-31T14:00:41;2;2;
39955;PMS5003;25631;51.516;-0.470;2023-08-31T14:03:17;3;3;
39955;PMS5003;25631;51.516;-0.470;2023-08-31T14:05:54;3;2;
39955;PMS5003;25631;51.516;-0.470;2023-08-31T14:08:30;1;1;
39955;PMS5003;25631;51.516;-0.470;2023-08-31T14:11:06;2;1;
39955;PMS5003;25631;51.516;-0.470;2023-08-31T14:13:43;2;1;
39955;PMS5003;25631;51.516;-0.470;2023-08-31T14:16:19;3;3;
39955;PMS5003;25631;51.516;-0.470;2023-08-31T14:18:56;2;2;
39955;PMS5003;25631;51.516;-0.470;2023-08-31T14:21:32;4;3;
39955;PMS5003;25631;51.516;-0.470;2023-08-31T14:24:09;4;3;
39955;PMS5003;25631;51.516;-0.470;2023-08-31T14:26:45;4;3;
39955;PMS5003;25631;51.516;-0.470;2023-08-31T14:29:22;2;1;
39955;PMS5003;25631;51.516;-0.470;2023-08-31T14:31:58;3;3;
39955;PMS5003;25631;51.516;-0.470;2023-08-31T14:34:36;0;0;
39955;PMS5003;25631;51.516;-0.470;2023-08-31T14:37:13;1;1;
39955;PMS5003;25631;51.516;-0.470;2023-08-31T14:39:49;2;1;
39955;PMS5003;25631;51.516;-0.470;2023-08-31T14:42:25;2;2;
39955;PMS5003;25631;51.516;-0.470;2023-08-31T14:45:02;2;2;
39955;PMS5003;25631;51.516;-0.470;2023-08-31T14:47:42;1;1;
39955;PMS5003;25631;51.516;-0.470;2023-08-31T14:50:19;3;2;
39955;PMS5003;25631;51.516;-0.470;2023-08-31T14:52:55;3;2;
39955;PMS5003;25631;51.516;-0.470;2023-08-31T14:55:32;1;1;
39955;PMS5003;25631;51.516;-0.470;2023-08-31T14:58:08;0;0;
39955;PMS5003;25631;51.516;-0.470;2023-08-31T15:00:45;3;3;
39955;PMS5003;25631;51.516;-0.470;2023-08-31T15:03:22;3;2;
39955;PMS5003;25631;51.516;-0.470;2023-08-31T15:05:58;3;2;
39955;PMS5003;25631;51.516;-0.470;2023-08-31T15:08:35;3;2;
39955;PMS5003;25631;51.516;-0.470;2023-08-31T15:11:13;2;2;
39955;PMS5003;25631;51.516;-0.470;2023-08-31T15:13:49;2;2;
39955;PMS5003;25631;51.516;-0.470;2023-08-31T15:16:25;0;0;
39955;PMS5003;25631;51.516;-0.470;2023-08-31T15:19:02;1;1;
39955;PMS5003;25631;51.516;-0.470;2023-08-31T15:21:39;1;1;
39955;PMS5003;25631;51.516;-0.470;2023-08-31T15:24:15;1;1;
39955;PMS5003;25631;51.516;-0.470;2023-08-31T15:26:51;1;1;
39955;PMS5003;25631;51.516;-0.470;2023-08-31T15:29:28;5;2;
39955;PMS5003;25631;51.516;-0.470;2023-08-31T15:32:04;5;2;
39955;PMS5003;25631;51.516;-0.470;2023-08-31T15:34:41;1;0;
39955;PMS5003;25631;51.516;-0.470;2023-08-31T15:37:20;1;1;
39955;PMS5003;25631;51.516;-0.470;2023-08-31T15:39:56;2;1;
39955;PMS5003;25631;51.516;-0.470;2023-08-31T15:42:33;4;4;
39955;PMS5003;25631;51.516;-0.470;2023-08-31T15:45:09;4;4;
39955;PMS5003;25631;51.516;-0.470;2023-08-31T15:47:46;5;4;
39955;PMS5003;25631;51.516;-0.470;2023-08-31T15:50:22;2;2;
39955;PMS5003;25631;51.516;-0.470;2023-08-31T15:52:59;3;3;
39955;PMS5003;25631;51.516;-0.470;2023-08-31T15:55:35;4;3;
39955;PMS5003;25631;51.516;-0.470;2023-08-31T15:58:12;3;1;
39955;PMS5003;25631;51.516;-0.470;2023-08-31T16:00:48;3;1;
39955;PMS5003;25631;51.516;-0.470;2023-08-31T16:03:25;3;3;
39955;PMS5003;25631;51.516;-0.470;2023-08-31T16:06:01;2;2;
39955;PMS5003;25631;51.516;-0.470;2023-08-31T16:08:40;1;1;
39955;PMS5003;25631;51.516;-0.470;2023-08-31T16:11:16;1;0;
39955;PMS5003;25631;51.516;-0.470;2023-08-31T16:13:53;1;1;
39955;PMS5003;25631;51.516;-0.470;2023-08-31T16:16:29;13;13;
39955;PMS5003;25631;51.516;-0.470;2023-08-31T16:19:06;9;9;
39955;PMS5003;25631;51.516;-0.470;2023-08-31T16:21:43;7;6;
39955;PMS5003;25631;51.516;-0.470;2023-08-31T16:24:19;7;2;
39955;PMS5003;25631;51.516;-0.470;2023-08-31T16:26:56;6;2;
39955;PMS5003;25631;51.516;-0.470;2023-08-31T16:29:32;3;2;
39955;PMS5003;25631;51.516;-0.470;2023-08-31T16:32:09;2;1;
39955;PMS5003;25631;51.516;-0.470;2023-08-31T16:34:45;2;2;
39955;PMS5003;25631;51.516;-0.470;2023-08-31T16:37:22;7;7;
39955;PMS5003;25631;51.516;-0.470;2023-08-31T16:39:58;9;7;
39955;PMS5003;25631;51.516;-0.470;2023-08-31T16:42:36;3;2;
39955;PMS5003;25631;51.516;-0.470;2023-08-31T16:45:13;3;2;
39955;PMS5003;25631;51.516;-0.470;2023-08-31T16:47:49;2;2;
39955;PMS5003;25631;51.516;-0.470;2023-08-31T16:50:29;2;2;
39955;PMS5003;25631;51.516;-0.470;2023-08-31T16:53:06;1;1;
39955;PMS5003;25631;51.516;-0.470;2023-08-31T16:55:43;1;1;
39955;PMS5003;25631;51.516;-0.470;2023-08-31T16:58:20;1;1;
39955;PMS5003;25631;51.516;-0.470;2023-08-31T17:00:56;1;1;
39955;PMS5003;25631;51.516;-0.470;2023-08-31T17:03:32;2;1;
39955;PMS5003;25631;51.516;-0.470;2023-08-31T17:06:09;2;1;
39955;PMS5003;25631;51.516;-0.470;2023-08-31T17:08:45;2;1;
39955;PMS5003;25631;51.516;-0.470;2023-08-31T17:11:22;4;2;
39955;PMS5003;25631;51.516;-0.470;2023-08-31T17:13:58;5;3;
39955;PMS5003;25631;51.516;-0.470;2023-08-31T17:16:34;4;2;
39955;PMS5003;25631;51.516;-0.470;2023-08-31T17:19:11;4;2;
39955;PMS5003;25631;51.516;-0.470;2023-08-31T17:21:48;5;3;
39955;PMS5003;25631;51.516;-0.470;2023-08-31T17:24:25;3;2;
39955;PMS5003;25631;51.516;-0.470;2023-08-31T17:27:02;3;3;
39955;PMS5003;25631;51.516;-0.470;2023-08-31T17:29:38;2;2;
39955;PMS5003;25631;51.516;-0.470;2023-08-31T17:32:15;16;15;
39955;PMS5003;25631;51.516;-0.470;2023-08-31T17:34:51;15;15;